Time;durP1;ratioP1;P1;durP2;ratioP2;P2;SDS_P1;SDS_P2;PMS_P1;PMS_P2;Temp;Humidity;BMP_temperature;BMP_pressure;BME280_temperature;BME280_humidity;BME280_pressure;Samples;Min_cycle;Max_cycle;Signal;HPM_P1;HPM_P2
2022/01/07 00:01:28;;;;;;;11.23;5.90;;;;;;;3.16;93.17;99330.31;5070204;28;20730;-59
2022/01/07 00:03:55;;;;;;;13.97;6.13;;;;;;;3.26;92.34;99340.06;5070567;28;20198;-59
2022/01/07 00:06:21;;;;;;;10.60;5.63;;;;;;;3.19;92.38;99347.06;5072328;28;20711;-67
2022/01/07 00:08:48;;;;;;;10.63;5.60;;;;;;;3.16;92.83;99359.81;5074278;28;20202;-59
2022/01/07 00:11:15;;;;;;;12.47;5.10;;;;;;;3.18;92.79;99353.84;5074098;28;20245;-59
2022/01/07 00:13:42;;;;;;;10.23;5.63;;;;;;;3.20;92.87;99355.47;5074620;28;20583;-59
2022/01/07 00:16:11;;;;;;;13.60;6.03;;;;;;;3.15;92.85;99348.06;5074065;28;20242;-68
2022/01/07 00:18:41;;;;;;;10.23;5.67;;;;;;;3.20;92.49;99351.25;5074165;28;20210;-67
2022/01/07 00:21:09;;;;;;;9.70;5.20;;;;;;;3.25;92.29;99353.59;5074202;28;20593;-59
2022/01/07 00:23:36;;;;;;;10.10;5.43;;;;;;;3.26;92.47;99353.56;5073974;28;20261;-59
2022/01/07 00:26:02;;;;;;;11.53;5.63;;;;;;;3.17;92.45;99342.09;5074008;28;20591;-68
2022/01/07 00:28:29;;;;;;;13.27;5.83;;;;;;;3.17;92.50;99352.19;5073899;28;20207;-68
2022/01/07 00:30:56;;;;;;;11.03;5.63;;;;;;;3.14;92.82;99356.53;5073793;28;20726;-59
2022/01/07 00:33:23;;;;;;;11.13;5.37;;;;;;;3.16;92.71;99369.91;5073792;28;20205;-59
2022/01/07 00:35:52;;;;;;;12.43;6.00;;;;;;;3.13;92.80;99370.03;5073595;28;20911;-61
2022/01/07 00:38:19;;;;;;;8.80;4.97;;;;;;;3.11;92.93;99370.13;5073722;28;20210;-68
2022/01/07 00:40:46;;;;;;;10.57;6.00;;;;;;;3.16;93.06;99380.84;5073543;28;20735;-67
2022/01/07 00:43:13;;;;;;;10.87;5.77;;;;;;;3.16;93.11;99382.56;5073344;28;20199;-60
2022/01/07 00:45:39;;;;;;;13.23;6.47;;;;;;;3.20;92.80;99385.78;5073473;28;20219;-68
2022/01/07 00:48:06;;;;;;;11.57;6.23;;;;;;;3.26;92.50;99388.06;5073702;28;20210;-67
2022/01/07 00:50:33;;;;;;;11.10;5.87;;;;;;;3.16;92.80;99385.09;5073300;28;20202;-68
2022/01/07 00:53:02;;;;;;;11.60;6.10;;;;;;;3.21;92.89;99383.22;5073681;28;20206;-59
2022/01/07 00:55:29;;;;;;;10.80;5.73;;;;;;;3.18;92.88;99378.28;5073570;28;20195;-68
2022/01/07 00:57:56;;;;;;;11.00;5.97;;;;;;;3.14;93.18;99374.19;5073549;28;20651;-60
2022/01/07 01:00:25;;;;;;;10.97;6.07;;;;;;;3.15;92.79;99376.69;5073184;28;20203;-59
2022/01/07 01:02:52;;;;;;;11.77;6.13;;;;;;;3.09;93.25;99376.91;5073473;28;20206;-58
2022/01/07 01:05:20;;;;;;;11.77;6.13;;;;;;;3.15;93.20;99375.88;5073163;28;20199;-68
2022/01/07 01:07:47;;;;;;;11.90;5.73;;;;;;;3.13;93.04;99380.16;5073091;28;20591;-58
2022/01/07 01:10:17;;;;;;;14.03;6.50;;;;;;;3.12;93.02;99384.38;5072941;28;20600;-67
2022/01/07 01:12:45;;;;;;;12.97;6.07;;;;;;;3.09;93.02;99378.63;5073225;28;20575;-58
2022/01/07 01:15:15;;;;;;;12.63;6.13;;;;;;;3.17;93.00;99372.41;5073230;28;20209;-59
2022/01/07 01:17:42;;;;;;;12.77;6.37;;;;;;;3.07;93.34;99376.13;5072532;28;20230;-59
2022/01/07 01:20:11;;;;;;;10.53;5.67;;;;;;;3.12;93.06;99378.50;5072988;28;20202;-67
2022/01/07 01:22:39;;;;;;;12.73;6.70;;;;;;;3.13;93.13;99380.97;5072934;28;20222;-67
2022/01/07 01:25:07;;;;;;;10.40;6.53;;;;;;;3.13;93.35;99380.16;5073123;28;20209;-68
2022/01/07 01:27:36;;;;;;;12.53;5.83;;;;;;;3.10;93.58;99375.22;5072748;28;20617;-59
2022/01/07 01:30:04;;;;;;;11.33;5.57;;;;;;;3.08;93.71;99367.66;5073165;28;20676;-68
2022/01/07 01:32:32;;;;;;;12.70;6.63;;;;;;;3.08;93.72;99375.25;5072517;28;20222;-68
2022/01/07 01:34:59;;;;;;;13.23;6.27;;;;;;;3.13;93.73;99365.00;5073154;28;20203;-60
2022/01/07 01:37:26;;;;;;;13.73;6.27;;;;;;;3.06;93.82;99356.81;5072617;28;20234;-59
2022/01/07 01:39:53;;;;;;;14.93;6.60;;;;;;;3.09;93.69;99364.28;5072995;28;20230;-68
2022/01/07 01:42:19;;;;;;;13.90;6.80;;;;;;;3.00;93.93;99358.75;5072363;28;20218;-59
2022/01/07 01:44:48;;;;;;;14.80;7.27;;;;;;;3.04;93.92;99370.38;5072419;28;20222;-59
2022/01/07 01:47:14;;;;;;;12.63;6.47;;;;;;;3.10;93.54;99367.63;5072421;28;20246;-58
2022/01/07 01:49:41;;;;;;;12.83;6.57;;;;;;;3.07;93.74;99376.13;5072510;28;20206;-58
2022/01/07 01:52:08;;;;;;;14.23;6.80;;;;;;;3.18;93.38;99373.22;5072149;28;20223;-59
2022/01/07 01:54:35;;;;;;;13.10;6.67;;;;;;;3.18;93.40;99374.03;5072597;28;20203;-59
2022/01/07 01:57:02;;;;;;;12.80;6.40;;;;;;;3.16;93.33;99375.78;5072268;28;20242;-59
2022/01/07 01:59:30;;;;;;;13.20;6.97;;;;;;;3.15;93.66;99373.34;5072323;28;20210;-59
2022/01/07 02:01:59;;;;;;;15.97;6.37;;;;;;;3.22;93.34;99379.78;5071833;28;20233;-67
2022/01/07 02:04:27;;;;;;;12.83;6.73;;;;;;;3.22;93.51;99382.31;5072364;28;20814;-65
2022/01/07 02:06:54;;;;;;;16.83;7.33;;;;;;;3.23;93.13;99378.09;5071851;28;20639;-68
2022/01/07 02:09:26;;;;;;;15.43;6.43;;;;;;;3.20;93.59;99386.63;5072094;28;20690;-68
2022/01/07 02:11:53;;;;;;;13.13;7.47;;;;;;;3.17;93.49;99394.28;5072025;28;20221;-59
2022/01/07 02:14:20;;;;;;;13.43;7.40;;;;;;;3.16;93.85;99385.09;5072076;28;20206;-59
2022/01/07 02:16:47;;;;;;;16.37;8.03;;;;;;;3.14;93.56;99384.31;5071875;28;20635;-67
2022/01/07 02:19:15;;;;;;;16.80;7.60;;;;;;;3.22;93.59;99384.84;5072013;28;20568;-68
2022/01/07 02:21:43;;;;;;;13.70;6.77;;;;;;;3.18;93.61;99385.84;5071650;28;20233;-59
2022/01/07 02:24:10;;;;;;;14.53;7.60;;;;;;;3.12;93.58;99383.56;5071601;28;20203;-59
2022/01/07 02:26:37;;;;;;;17.23;8.27;;;;;;;3.12;93.49;99378.50;5071430;28;20237;-59
2022/01/07 02:29:05;;;;;;;15.93;8.03;;;;;;;3.12;93.69;99386.09;5070914;28;20202;-67
2022/01/07 02:31:32;;;;;;;18.13;7.63;;;;;;;3.07;93.85;99393.81;5071403;28;20250;-68
2022/01/07 02:33:59;;;;;;;15.83;7.63;;;;;;;3.13;93.47;99390.25;5071447;28;20206;-59
2022/01/07 02:36:25;;;;;;;16.43;7.50;;;;;;;3.14;94.08;99392.72;5071468;28;20237;-59
2022/01/07 02:38:54;;;;;;;15.03;7.73;;;;;;;3.16;93.65;99397.72;5071413;28;20230;-59
2022/01/07 02:41:20;;;;;;;12.83;6.80;;;;;;;3.08;94.09;99402.22;5071596;28;20253;-59
2022/01/07 02:43:47;;;;;;;14.37;7.27;;;;;;;3.10;93.98;99405.53;5071273;28;20691;-58
2022/01/07 02:46:14;;;;;;;13.77;6.63;;;;;;;3.12;93.92;99404.59;5071353;28;20722;-68
2022/01/07 02:48:41;;;;;;;15.33;7.67;;;;;;;3.09;93.70;99408.94;5071185;28;20203;-68
2022/01/07 02:51:08;;;;;;;15.07;7.30;;;;;;;3.06;94.10;99409.06;5071000;28;20238;-67
2022/01/07 02:53:35;;;;;;;15.87;6.83;;;;;;;3.06;94.12;99404.00;5071158;28;20198;-67
2022/01/07 02:56:03;;;;;;;14.57;7.03;;;;;;;3.03;94.30;99404.94;5070818;28;20708;-59
2022/01/07 02:58:30;;;;;;;13.90;6.60;;;;;;;3.03;93.99;99409.97;5070909;28;20717;-59
2022/01/07 03:00:57;;;;;;;12.77;6.83;;;;;;;3.01;94.54;99405.84;5071134;28;20233;-59
2022/01/07 03:03:24;;;;;;;13.97;7.10;;;;;;;2.93;94.59;99409.47;5071227;28;20203;-59
2022/01/07 03:05:51;;;;;;;15.57;7.37;;;;;;;2.95;94.68;99422.88;5070832;28;20225;-67
2022/01/07 03:08:18;;;;;;;13.60;6.93;;;;;;;2.98;94.70;99438.81;5070694;28;20198;-59
2022/01/07 03:10:44;;;;;;;14.70;7.40;;;;;;;2.90;94.64;99437.34;5070864;28;20215;-59
2022/01/07 03:13:13;;;;;;;14.30;6.80;;;;;;;2.94;94.58;99438.91;5070628;28;20198;-63
2022/01/07 03:15:40;;;;;;;15.10;7.60;;;;;;;2.92;94.83;99438.13;5070757;28;20222;-59
2022/01/07 03:18:08;;;;;;;14.60;6.97;;;;;;;2.88;94.60;99449.22;5070485;28;20237;-59
2022/01/07 03:20:38;;;;;;;13.73;6.60;;;;;;;2.89;94.72;99447.53;5070795;28;20218;-59
2022/01/07 03:23:07;;;;;;;14.37;6.60;;;;;;;2.90;94.56;99444.94;5070763;28;20203;-59
2022/01/07 03:25:34;;;;;;;16.20;6.97;;;;;;;2.92;94.68;99450.75;5070809;28;20248;-67
2022/01/07 03:28:00;;;;;;;14.87;7.23;;;;;;;2.89;94.65;99448.34;5070682;28;20574;-59
2022/01/07 03:30:29;;;;;;;16.00;7.17;;;;;;;2.88;94.85;99451.75;5070619;28;20202;-59
2022/01/07 03:32:56;;;;;;;15.30;7.40;;;;;;;2.93;94.64;99449.88;5070747;28;20206;-68
2022/01/07 03:35:23;;;;;;;13.77;6.87;;;;;;;2.93;94.60;99459.97;5070914;28;20202;-67
2022/01/07 03:37:49;;;;;;;14.73;6.97;;;;;;;2.92;94.55;99455.81;5070624;28;20234;-59
2022/01/07 03:40:17;;;;;;;14.17;6.90;;;;;;;2.99;94.42;99458.13;5070395;28;20211;-68
2022/01/07 03:42:45;;;;;;;12.03;6.50;;;;;;;3.01;94.31;99457.19;5070510;28;20598;-59
2022/01/07 03:45:13;;;;;;;18.77;7.70;;;;;;;2.98;94.42;99461.53;5070597;28;20234;-68
2022/01/07 03:47:41;;;;;;;12.87;6.57;;;;;;;3.04;94.21;99462.13;5070332;28;20198;-68
2022/01/07 03:50:11;;;;;;;11.47;6.27;;;;;;;3.06;94.11;99464.63;5070778;28;20214;-59
2022/01/07 03:52:39;;;;;;;12.83;6.90;;;;;;;3.10;93.93;99466.16;5070162;28;20724;-68
2022/01/07 03:55:09;;;;;;;14.57;7.07;;;;;;;3.09;94.33;99472.09;5070284;28;20205;-59
2022/01/07 03:57:36;;;;;;;18.83;7.27;;;;;;;3.12;93.99;99469.44;5070062;28;20249;-67
2022/01/07 04:00:05;;;;;;;15.50;7.23;;;;;;;3.07;93.93;99478.88;5070377;28;20205;-59
2022/01/07 04:02:32;;;;;;;15.03;6.33;;;;;;;3.06;94.25;99482.31;5070205;28;20758;-68
2022/01/07 04:05:00;;;;;;;12.87;6.70;;;;;;;3.08;94.17;99483.88;5070574;28;20202;-68
2022/01/07 04:07:30;;;;;;;13.40;6.13;;;;;;;3.22;93.99;99487.63;5070399;28;20241;-59
2022/01/07 04:09:57;;;;;;;16.23;7.20;;;;;;;3.22;93.38;99490.16;5070605;28;20217;-59
2022/01/07 04:12:24;;;;;;;17.03;7.33;;;;;;;3.20;93.24;99492.75;5070114;28;20236;-59
2022/01/07 04:15:01;;;;;;;13.80;6.70;;;;;;;3.18;93.31;99497.03;5070245;28;20203;-68
2022/01/07 04:17:28;;;;;;;13.13;6.13;;;;;;;3.23;93.00;99502.75;5070041;28;20702;-59
2022/01/07 04:19:55;;;;;;;15.10;6.73;;;;;;;3.28;93.09;99500.84;5070429;28;20199;-69
2022/01/07 04:22:23;;;;;;;14.40;6.63;;;;;;;3.26;93.08;99507.69;5070553;28;20233;-67
2022/01/07 04:24:50;;;;;;;14.67;7.27;;;;;;;3.28;93.30;99505.91;5070220;28;20207;-59
2022/01/07 04:27:17;;;;;;;13.33;6.43;;;;;;;3.25;93.20;99511.06;5069865;28;20746;-67
2022/01/07 04:29:43;;;;;;;14.97;6.80;;;;;;;3.31;93.10;99507.50;5070198;28;20636;-67
2022/01/07 04:32:10;;;;;;;13.60;6.80;;;;;;;3.37;92.52;99514.88;5069997;28;20230;-59
2022/01/07 04:34:38;;;;;;;13.60;6.77;;;;;;;3.30;92.87;99524.38;5070057;28;20199;-58
2022/01/07 04:37:05;;;;;;;14.17;7.10;;;;;;;3.31;92.71;99525.19;5069863;28;20229;-59
2022/01/07 04:39:33;;;;;;;13.47;6.70;;;;;;;3.39;92.51;99533.34;5069809;28;20234;-59
2022/01/07 04:42:00;;;;;;;15.30;7.30;;;;;;;3.40;92.27;99540.88;5069852;28;20215;-60
2022/01/07 04:44:27;;;;;;;13.97;6.43;;;;;;;3.38;92.20;99542.63;5069798;28;20242;-59
2022/01/07 04:46:54;;;;;;;13.20;6.97;;;;;;;3.39;92.16;99533.34;5069804;28;20229;-59
2022/01/07 04:49:21;;;;;;;12.73;6.83;;;;;;;3.31;92.30;99536.13;5070190;28;20589;-59
2022/01/07 04:51:48;;;;;;;13.83;6.87;;;;;;;3.30;92.42;99537.00;5070688;28;20634;-68
2022/01/07 04:54:14;;;;;;;14.00;6.73;;;;;;;3.36;92.48;99548.59;5073512;28;20496;-59
2022/01/07 04:56:43;;;;;;;12.60;6.70;;;;;;;3.44;91.58;99551.69;5073244;28;20221;-59
2022/01/07 04:59:09;;;;;;;13.93;6.67;;;;;;;3.43;91.65;99559.31;5073477;28;20234;-67
2022/01/07 05:01:36;;;;;;;12.87;6.27;;;;;;;3.48;91.99;99554.94;5073236;28;20219;-59
2022/01/07 05:04:03;;;;;;;12.20;6.90;;;;;;;3.46;91.82;99554.16;5073185;28;20206;-60
2022/01/07 05:09:11;;;;;;;14.60;6.83;;;;;;;3.40;91.51;99550.13;5070241;28;20221;-68
2022/01/07 05:11:37;;;;;;;13.63;6.70;;;;;;;3.34;92.12;99540.25;5072963;28;20234;-68
2022/01/07 05:14:06;;;;;;;14.17;6.10;;;;;;;3.29;92.42;99542.13;5073216;28;20198;-59
2022/01/07 05:16:32;;;;;;;11.97;6.23;;;;;;;3.36;91.97;99544.38;5073228;28;20214;-59
2022/01/07 05:18:59;;;;;;;14.30;6.67;;;;;;;3.28;91.85;99546.34;5072804;28;20234;-59
2022/01/07 05:21:26;;;;;;;15.00;6.83;;;;;;;3.29;91.86;99553.06;5072742;28;20222;-59
2022/01/07 05:23:53;;;;;;;13.77;6.83;;;;;;;3.30;92.05;99564.81;5073078;28;20199;-59
2022/01/07 05:26:20;;;;;;;14.13;6.60;;;;;;;3.34;91.62;99561.28;5072835;28;20223;-65
2022/01/07 05:28:47;;;;;;;12.37;6.00;;;;;;;3.28;91.71;99556.44;5072661;28;20204;-59
2022/01/07 05:31:15;;;;;;;13.60;6.73;;;;;;;3.26;92.14;99567.47;5072610;28;20218;-67
2022/01/07 05:33:41;;;;;;;17.60;6.90;;;;;;;3.27;92.06;99559.03;5072875;28;20221;-59
2022/01/07 05:36:08;;;;;;;14.17;6.70;;;;;;;3.29;91.63;99558.13;5072463;28;20223;-59
2022/01/07 05:38:36;;;;;;;14.10;6.90;;;;;;;3.22;91.61;99560.91;5072429;28;20722;-58
2022/01/07 05:41:02;;;;;;;15.20;6.53;;;;;;;3.25;91.63;99566.66;5072517;28;20656;-58
2022/01/07 05:43:30;;;;;;;14.13;6.63;;;;;;;3.30;91.32;99559.75;5072541;28;20199;-59
2022/01/07 05:45:58;;;;;;;18.07;7.20;;;;;;;3.28;91.24;99570.78;5072481;28;20224;-59
2022/01/07 05:48:26;;;;;;;13.77;6.27;;;;;;;3.27;90.92;99580.09;5072600;28;20213;-67
2022/01/07 05:50:53;;;;;;;13.13;6.37;;;;;;;3.26;91.25;99568.34;5072558;28;20607;-58
2022/01/07 05:53:20;;;;;;;13.17;6.87;;;;;;;3.29;91.21;99578.34;5072296;28;20202;-68
2022/01/07 05:55:46;;;;;;;12.73;6.30;;;;;;;3.32;90.78;99578.22;5072274;28;20229;-59
2022/01/07 05:58:13;;;;;;;15.77;6.90;;;;;;;3.26;90.91;99573.38;5071969;28;20234;-66
2022/01/07 06:00:40;;;;;;;11.73;6.03;;;;;;;3.31;90.73;99574.03;5072303;28;20230;-60
2022/01/07 06:03:07;;;;;;;11.20;6.13;;;;;;;3.34;91.13;99565.53;5071983;28;20203;-67
2022/01/07 06:05:35;;;;;;;11.93;6.10;;;;;;;3.35;90.72;99570.53;5072043;28;20206;-67
2022/01/07 06:08:02;;;;;;;13.77;6.00;;;;;;;3.30;90.76;99567.34;5071962;28;20210;-59
2022/01/07 06:10:29;;;;;;;12.27;5.87;;;;;;;3.28;91.02;99571.59;5071953;28;20206;-69
2022/01/07 06:12:56;;;;;;;11.97;6.43;;;;;;;3.29;90.74;99573.28;5071969;28;20203;-69
2022/01/07 06:15:23;;;;;;;10.93;5.93;;;;;;;3.33;90.75;99579.88;5072494;28;20606;-68
2022/01/07 06:17:50;;;;;;;11.43;6.47;;;;;;;3.34;90.31;99596.66;5071679;28;20202;-68
2022/01/07 06:20:18;;;;;;;13.70;6.53;;;;;;;3.34;90.52;99591.59;5071948;28;20210;-59
2022/01/07 06:22:46;;;;;;;12.57;6.63;;;;;;;3.36;89.88;99594.91;5071741;28;20646;-59
2022/01/07 06:25:13;;;;;;;14.47;6.63;;;;;;;3.29;90.25;99593.50;5071801;28;20686;-67
2022/01/07 06:27:40;;;;;;;12.20;6.60;;;;;;;3.29;90.33;99588.44;5071678;28;20198;-59
2022/01/07 06:30:08;;;;;;;13.33;6.87;;;;;;;3.35;90.03;99595.81;5071625;28;20214;-66
2022/01/07 06:32:35;;;;;;;15.30;6.90;;;;;;;3.34;90.54;99609.31;5071343;28;20215;-59
2022/01/07 06:35:02;;;;;;;11.27;5.97;;;;;;;3.38;90.31;99612.56;5071451;28;20210;-65
2022/01/07 06:37:29;;;;;;;13.77;6.67;;;;;;;3.39;90.19;99620.09;5071356;28;20226;-59
2022/01/07 06:39:58;;;;;;;12.37;6.40;;;;;;;3.45;90.38;99608.13;5071731;28;20736;-67
2022/01/07 06:42:25;;;;;;;15.03;6.50;;;;;;;3.52;89.82;99615.44;5071339;28;20219;-58
2022/01/07 06:44:52;;;;;;;14.83;6.40;;;;;;;3.53;90.14;99626.38;5071657;28;20225;-58
2022/01/07 06:47:18;;;;;;;13.17;6.30;;;;;;;3.46;90.32;99614.81;5071051;28;20222;-58
2022/01/07 06:49:45;;;;;;;12.10;5.93;;;;;;;3.47;90.71;99619.00;5071318;28;20217;-58
2022/01/07 06:52:12;;;;;;;11.87;6.43;;;;;;;3.47;91.01;99616.50;5070895;28;20218;-59
2022/01/07 06:54:39;;;;;;;14.67;6.30;;;;;;;3.42;90.96;99623.41;5071478;28;20656;-68
2022/01/07 06:57:07;;;;;;;12.00;6.17;;;;;;;3.45;91.23;99630.88;5071116;28;20223;-67
2022/01/07 06:59:34;;;;;;;13.07;6.50;;;;;;;3.52;90.76;99632.28;5071214;28;20241;-67
2022/01/07 07:02:01;;;;;;;10.50;5.90;;;;;;;3.49;91.05;99637.47;5070794;28;20227;-67
2022/01/07 07:04:28;;;;;;;12.13;6.17;;;;;;;3.44;91.08;99634.28;5071131;28;20260;-67
2022/01/07 07:06:55;;;;;;;12.20;6.83;;;;;;;3.48;90.96;99625.72;5070996;28;20214;-59
2022/01/07 07:09:22;;;;;;;12.97;6.57;;;;;;;3.53;91.14;99632.25;5070946;28;20285;-67
2022/01/07 07:11:49;;;;;;;14.90;6.43;;;;;;;3.54;90.87;99635.59;5070742;28;20222;-68
2022/01/07 07:14:17;;;;;;;14.83;6.50;;;;;;;3.48;90.87;99639.16;5070495;28;20199;-67
2022/01/07 07:16:44;;;;;;;12.50;5.90;;;;;;;3.66;90.54;99642.75;5070922;28;20233;-67
2022/01/07 07:19:11;;;;;;;11.53;7.00;;;;;;;3.60;90.45;99637.91;5070781;28;20234;-59
2022/01/07 07:21:38;;;;;;;17.63;7.00;;;;;;;3.61;90.45;99639.59;5070622;28;20308;-58
2022/01/07 07:24:06;;;;;;;16.83;8.30;;;;;;;3.60;90.32;99640.44;5070810;28;20198;-68
2022/01/07 07:26:33;;;;;;;12.50;6.80;;;;;;;3.64;90.04;99639.47;5070572;28;20222;-67
2022/01/07 07:29:00;;;;;;;13.13;6.27;;;;;;;3.68;90.05;99645.25;5070668;28;20198;-58
2022/01/07 07:31:30;;;;;;;12.13;6.23;;;;;;;3.77;89.82;99640.69;5070577;28;20712;-58
2022/01/07 07:34:19;;;;;;;13.60;6.83;;;;;;;3.72;89.49;99642.53;5070911;28;20628;-68
2022/01/07 07:36:46;;;;;;;12.53;6.50;;;;;;;3.78;89.10;99639.81;5070680;28;20232;-67
2022/01/07 07:39:14;;;;;;;13.80;6.50;;;;;;;3.77;89.19;99645.75;5070669;28;20237;-66
2022/01/07 07:41:43;;;;;;;12.67;6.60;;;;;;;3.87;88.70;99641.19;5070683;28;20223;-66
2022/01/07 07:44:10;;;;;;;11.70;6.70;;;;;;;3.97;88.60;99646.75;5070607;28;20745;-59
2022/01/07 07:46:40;;;;;;;14.70;7.40;;;;;;;3.97;88.43;99634.09;5070295;28;20225;-59
2022/01/07 07:49:08;;;;;;;13.33;6.27;;;;;;;4.00;88.08;99633.97;5070403;28;20206;-65
2022/01/07 07:51:36;;;;;;;11.80;7.10;;;;;;;3.95;87.54;99646.78;5070415;28;20214;-65
2022/01/07 07:54:04;;;;;;;12.90;6.50;;;;;;;4.02;87.80;99652.47;5070288;28;20195;-58
2022/01/07 07:56:31;;;;;;;12.03;6.07;;;;;;;4.07;87.42;99648.88;5070514;28;20218;-58
2022/01/07 07:58:58;;;;;;;15.13;6.87;;;;;;;4.20;86.64;99645.91;5070343;28;20233;-66
2022/01/07 08:01:25;;;;;;;15.37;7.30;;;;;;;4.30;86.46;99650.56;5070492;28;20226;-64
2022/01/07 08:03:54;;;;;;;13.80;7.20;;;;;;;4.42;85.17;99653.50;5070533;28;20205;-59
2022/01/07 08:06:20;;;;;;;13.17;6.80;;;;;;;4.62;84.80;99657.81;5070182;28;20739;-68
2022/01/07 08:08:48;;;;;;;15.80;7.83;;;;;;;4.67;84.27;99664.34;5070411;28;20214;-67
2022/01/07 08:11:16;;;;;;;13.37;7.03;;;;;;;4.69;83.33;99666.84;5070553;28;20237;-66
2022/01/07 08:16:24;;;;;;;15.27;7.83;;;;;;;4.61;83.96;99672.19;5036336;28;20617;-66
2022/01/07 08:18:53;;;;;;;12.77;6.53;;;;;;;4.58;83.85;99669.78;5070058;28;20650;-67
2022/01/07 08:21:25;;;;;;;12.93;6.73;;;;;;;4.65;84.43;99671.16;5070035;28;20233;-58
2022/01/07 08:23:54;;;;;;;14.57;7.10;;;;;;;4.70;83.97;99669.28;5070138;28;20198;-57
2022/01/07 08:26:22;;;;;;;14.70;6.93;;;;;;;4.62;83.52;99676.34;5070420;28;20222;-58
2022/01/07 08:28:52;;;;;;;13.33;6.63;;;;;;;4.65;82.79;99675.41;5073780;28;20203;-58
2022/01/07 08:34:53;;;;;;;12.80;6.97;;;;;;;4.83;83.18;99673.88;5073652;28;20226;-59
2022/01/07 08:37:01;;;;;;;12.97;7.40;;;;;;;4.97;82.75;99666.56;5073832;28;20743;-58
2022/01/07 08:39:28;;;;;;;15.27;7.40;;;;;;;4.83;83.00;99658.66;5073796;28;20727;-67
2022/01/07 08:41:55;;;;;;;12.63;6.53;;;;;;;4.91;82.62;99666.81;5073520;28;20549;-66
2022/01/07 08:44:25;;;;;;;13.23;6.83;;;;;;;5.03;81.61;99671.38;5073514;28;20229;-63
2022/01/07 08:46:52;;;;;;;11.30;6.43;;;;;;;5.06;81.94;99676.34;5073494;28;20223;-58
2022/01/07 08:49:19;;;;;;;12.90;7.20;;;;;;;5.13;81.47;99667.59;5073741;28;20771;-59
2022/01/07 08:51:46;;;;;;;15.33;7.27;;;;;;;4.94;81.13;99669.22;5073445;28;20222;-58
2022/01/07 08:54:14;;;;;;;15.33;7.50;;;;;;;4.82;81.54;99662.09;5073608;28;20275;-59
2022/01/07 08:56:41;;;;;;;16.90;7.90;;;;;;;4.85;81.60;99667.03;5073247;28;20223;-59
2022/01/07 08:59:08;;;;;;;16.23;7.83;;;;;;;4.94;81.51;99661.59;5073382;28;20241;-67
2022/01/07 09:01:35;;;;;;;17.23;7.60;;;;;;;5.08;80.89;99659.34;5073059;28;20226;-61
2022/01/07 09:04:01;;;;;;;15.03;7.70;;;;;;;5.07;80.78;99655.19;5073137;28;20210;-63
2022/01/07 09:06:28;;;;;;;12.47;6.97;;;;;;;5.03;81.38;99661.22;5073065;28;20731;-58
2022/01/07 09:08:55;;;;;;;13.93;7.30;;;;;;;5.02;81.61;99652.00;5073015;28;20213;-67
2022/01/07 09:11:23;;;;;;;13.93;6.93;;;;;;;5.16;81.18;99652.25;5072959;28;20225;-66
2022/01/07 09:13:52;;;;;;;14.80;7.40;;;;;;;5.21;80.17;99655.44;5073091;28;20206;-66
2022/01/07 09:16:19;;;;;;;23.33;9.93;;;;;;;5.33;80.08;99655.81;5073176;28;20276;-66
2022/01/07 09:18:47;;;;;;;16.53;8.37;;;;;;;5.44;79.75;99656.22;5072961;28;20861;-57
2022/01/07 09:21:13;;;;;;;12.07;7.17;;;;;;;5.37;79.25;99654.78;5073141;28;20583;-57
2022/01/07 09:23:41;;;;;;;13.23;7.10;;;;;;;5.44;79.43;99653.66;5072954;28;20205;-59
2022/01/07 09:26:09;;;;;;;13.10;7.30;;;;;;;5.39;78.94;99651.31;5072717;28;20798;-67
2022/01/07 09:28:37;;;;;;;16.70;8.37;;;;;;;5.34;79.55;99644.78;5072822;28;20202;-66
2022/01/07 09:31:04;;;;;;;16.13;7.73;;;;;;;5.56;78.07;99652.31;5072734;28;20227;-58
2022/01/07 09:33:31;;;;;;;13.50;7.23;;;;;;;5.56;79.21;99648.06;5072558;28;20231;-58
2022/01/07 09:35:58;;;;;;;16.97;8.57;;;;;;;5.68;78.41;99650.06;5072799;28;20222;-67
2022/01/07 09:38:26;;;;;;;11.33;7.13;;;;;;;5.88;78.05;99651.75;5072432;28;20596;-58
2022/01/07 09:40:53;;;;;;;14.37;7.17;;;;;;;5.94;76.78;99654.94;5072502;28;20235;-67
2022/01/07 09:43:20;;;;;;;12.27;6.83;;;;;;;6.03;76.29;99650.28;5072643;28;20198;-66
2022/01/07 09:45:48;;;;;;;15.67;6.97;;;;;;;6.15;77.11;99653.16;5072654;28;20610;-57
2022/01/07 09:48:15;;;;;;;10.57;6.87;;;;;;;6.24;77.20;99650.22;5072477;28;20195;-58
2022/01/07 09:50:42;;;;;;;12.13;6.40;;;;;;;6.43;75.72;99648.47;5072438;28;20221;-59
2022/01/07 09:53:12;;;;;;;17.63;7.87;;;;;;;6.49;76.62;99650.75;5072207;28;20202;-67
2022/01/07 09:55:39;;;;;;;12.60;7.10;;;;;;;6.44;75.77;99649.31;5072311;28;20250;-67
2022/01/07 09:58:07;;;;;;;12.97;6.77;;;;;;;6.55;74.85;99649.63;5072028;28;20706;-66
2022/01/07 10:00:37;;;;;;;11.00;6.87;;;;;;;6.56;75.35;99649.53;5072090;28;20738;-59
2022/01/07 10:03:08;;;;;;;13.63;7.07;;;;;;;6.46;76.42;99638.19;5072008;28;20203;-67
2022/01/07 10:05:41;;;;;;;13.40;7.20;;;;;;;6.48;74.44;99636.38;5072315;28;20222;-59
2022/01/07 10:08:23;;;;;;;10.67;6.47;;;;;;;6.60;73.60;99644.31;5072042;28;20226;-59
2022/01/07 10:11:11;;;;;;;10.77;5.67;;;;;;;6.52;72.59;99653.13;5072280;28;20538;-67
2022/01/07 10:13:38;;;;;;;11.53;6.80;;;;;;;6.66;74.35;99644.88;5071957;28;20201;-67
2022/01/07 10:16:14;;;;;;;12.43;6.33;;;;;;;6.76;72.79;99637.63;5071850;28;20226;-67
2022/01/07 10:18:42;;;;;;;12.40;6.77;;;;;;;6.67;72.54;99645.69;5071997;28;20659;-68
2022/01/07 10:21:10;;;;;;;13.03;7.20;;;;;;;6.70;73.05;99645.53;5071790;28;20655;-58
2022/01/07 10:23:37;;;;;;;12.57;6.40;;;;;;;6.78;71.66;99648.56;5071694;28;20206;-67
2022/01/07 10:26:04;;;;;;;13.03;6.87;;;;;;;7.26;72.40;99639.41;5071679;28;20230;-59
2022/01/07 10:28:33;;;;;;;11.07;6.60;;;;;;;8.10;70.14;99647.00;5071655;28;20203;-59
2022/01/07 10:31:02;;;;;;;13.30;7.13;;;;;;;8.56;65.39;99644.56;5071684;28;20215;-68
2022/01/07 10:33:31;;;;;;;11.03;6.97;;;;;;;8.88;63.66;99639.41;5071339;28;20213;-59
2022/01/07 10:36:16;;;;;;;9.57;6.03;;;;;;;9.01;63.69;99632.69;5071445;28;20226;-68
2022/01/07 10:38:48;;;;;;;11.83;6.47;;;;;;;8.89;62.70;99630.84;5071606;28;20706;-66
2022/01/07 10:41:15;;;;;;;10.43;6.17;;;;;;;8.85;62.96;99632.75;5071322;28;20249;-59
2022/01/07 10:43:43;;;;;;;10.93;6.20;;;;;;;8.73;62.25;99633.44;5071215;28;20203;-62
2022/01/07 10:46:19;;;;;;;10.10;5.97;;;;;;;8.77;61.21;99628.06;5071331;28;20225;-59
2022/01/07 10:48:49;;;;;;;10.67;5.63;;;;;;;8.64;62.09;99628.81;5071178;28;20643;-58
2022/01/07 10:51:20;;;;;;;12.20;6.80;;;;;;;8.56;63.26;99624.97;5070892;28;20230;-59
2022/01/07 10:53:53;;;;;;;12.10;6.60;;;;;;;8.56;63.14;99629.25;5070991;28;20202;-59
2022/01/07 10:56:21;;;;;;;12.60;6.73;;;;;;;8.57;63.81;99620.69;5071052;28;20226;-59
2022/01/07 10:59:00;;;;;;;13.20;6.13;;;;;;;8.43;62.43;99613.00;5071005;28;20221;-60
2022/01/07 11:01:34;;;;;;;11.63;6.90;;;;;;;8.31;63.58;99620.38;5071143;28;20238;-60
2022/01/07 11:04:02;;;;;;;11.10;6.00;;;;;;;8.45;64.83;99617.09;5071182;28;20245;-68
2022/01/07 11:06:31;;;;;;;10.50;6.27;;;;;;;8.58;63.67;99622.34;5070991;28;20219;-59
2022/01/07 11:09:00;;;;;;;10.83;6.33;;;;;;;8.51;62.81;99621.88;5070810;28;20230;-59
2022/01/07 11:11:29;;;;;;;12.17;7.90;;;;;;;8.46;62.63;99613.63;5071183;28;20230;-59
2022/01/07 11:14:05;;;;;;;10.93;6.20;;;;;;;8.68;64.06;99613.28;5070700;28;20198;-68
2022/01/07 11:16:32;;;;;;;13.87;8.47;;;;;;;8.32;62.55;99606.75;5070747;28;20233;-59
2022/01/07 11:19:00;;;;;;;11.43;7.13;;;;;;;8.48;61.89;99611.03;5070735;28;20596;-59
2022/01/07 11:21:27;;;;;;;11.70;6.43;;;;;;;8.54;63.58;99611.50;5070311;28;20245;-68
2022/01/07 11:23:55;;;;;;;12.87;6.60;;;;;;;8.45;63.32;99617.09;5070426;28;20201;-67
2022/01/07 11:26:23;;;;;;;12.50;6.90;;;;;;;8.62;64.16;99613.63;5070639;28;20215;-68
2022/01/07 11:29:03;;;;;;;11.73;6.03;;;;;;;8.70;62.66;99610.66;5070788;28;20224;-67
2022/01/07 11:31:31;;;;;;;11.93;6.63;;;;;;;8.73;62.42;99621.50;5070877;28;20294;-67
2022/01/07 11:34:24;;;;;;;11.93;6.80;;;;;;;8.77;60.59;99610.22;5070839;28;20201;-60
2022/01/07 11:36:51;;;;;;;10.73;6.27;;;;;;;8.69;61.15;99614.91;5070524;28;20671;-59
2022/01/07 11:39:21;;;;;;;12.47;6.37;;;;;;;8.33;61.10;99608.38;5070756;28;20206;-67
2022/01/07 11:41:53;;;;;;;9.57;6.10;;;;;;;8.40;61.41;99611.44;5070403;28;20253;-67
2022/01/07 11:44:26;;;;;;;10.93;6.13;;;;;;;7.77;62.28;99617.31;5070499;28;20668;-67
2022/01/07 11:47:24;;;;;;;12.27;7.27;;;;;;;7.66;66.75;99614.50;5070563;28;20222;-68